createdAt,value
2023-01-30T00:01:16.147Z,101960.16
2023-01-30T00:03:44.355Z,101950.75
2023-01-30T00:06:13.149Z,101955.13
2023-01-30T00:08:41.337Z,101957.72
2023-01-30T00:11:11.343Z,101949.16
2023-01-30T00:13:39.733Z,101949.19
2023-01-30T00:16:10.790Z,101948.31
2023-01-30T00:18:41.017Z,101954.25
2023-01-30T00:21:11.228Z,101949.97
2023-01-30T00:23:40.332Z,101956.84
2023-01-30T00:26:09.786Z,101955.13
2023-01-30T00:28:39.791Z,101950.91
2023-01-30T00:31:10.220Z,101947.47
2023-01-30T00:33:39.887Z,101941.50
2023-01-30T00:36:08.908Z,101938.94
2023-01-30T00:38:38.459Z,101937.22
2023-01-30T00:41:08.707Z,101938.94
2023-01-30T00:43:54.584Z,101934.63
2023-01-30T00:46:48.618Z,101931.25
2023-01-30T00:49:17.320Z,101927.81
2023-01-30T00:51:47.181Z,101926.13
2023-01-30T00:54:15.615Z,101935.59
2023-01-30T00:56:44.898Z,101933.06
2023-01-30T00:59:13.107Z,101932.19
2023-01-30T01:01:43.067Z,101925.34
2023-01-30T01:04:11.908Z,101924.50
2023-01-30T01:06:40.987Z,101919.38
2023-01-30T01:09:09.234Z,101918.53
2023-01-30T01:11:37.831Z,101922.00
2023-01-30T01:14:07.714Z,101922.00
2023-01-30T01:16:37.250Z,101916.00
2023-01-30T01:19:07.000Z,101916.00
2023-01-30T01:21:35.297Z,101913.44
2023-01-30T01:24:03.542Z,101915.13
2023-01-30T01:26:31.785Z,101913.44
2023-01-30T01:29:00.732Z,101919.44
2023-01-30T01:31:29.076Z,101911.69
2023-01-30T01:33:57.666Z,101908.25
2023-01-30T01:36:52.037Z,101913.41
2023-01-30T01:39:17.732Z,101909.94
2023-01-30T01:41:45.006Z,101909.09
2023-01-30T01:44:15.364Z,101900.50
2023-01-30T01:46:47.217Z,101903.09
2023-01-30T01:49:18.689Z,101903.09
2023-01-30T01:51:56.123Z,101900.53
2023-01-30T01:54:30.894Z,101904.81
2023-01-30T01:57:03.162Z,101905.69
2023-01-30T01:59:36.200Z,101904.81
2023-01-30T02:02:10.412Z,101899.66
2023-01-30T02:04:58.332Z,101907.41
2023-01-30T02:07:30.868Z,101903.09
2023-01-30T02:09:59.001Z,101907.41
2023-01-30T02:12:27.487Z,101910.84
2023-01-30T02:14:58.315Z,101908.25
2023-01-30T02:17:26.612Z,101904.81
2023-01-30T02:20:06.152Z,101913.44
2023-01-30T02:23:11.563Z,101911.72
2023-01-30T02:26:10.910Z,101915.16
2023-01-30T02:28:53.698Z,101913.44
2023-01-30T02:31:28.865Z,101906.56
2023-01-30T02:34:10.990Z,101910.00
2023-01-30T02:36:53.290Z,101899.69
2023-01-30T02:39:34.082Z,101893.66
2023-01-30T02:42:10.075Z,101898.84
2023-01-30T02:44:50.984Z,101895.38
2023-01-30T02:47:26.711Z,101888.50
2023-01-30T02:50:02.161Z,101897.13
2023-01-30T02:52:31.968Z,101893.66
2023-01-30T02:55:00.211Z,101897.13
2023-01-30T02:57:28.483Z,101885.09
2023-01-30T03:00:06.268Z,101890.25
2023-01-30T03:03:07.491Z,101894.56
2023-01-30T03:06:05.971Z,101892.00
2023-01-30T03:08:45.699Z,101890.25
2023-01-30T03:11:14.538Z,101890.25
2023-01-30T03:13:50.527Z,101892.81
2023-01-30T03:16:22.396Z,101888.53
2023-01-30T03:18:52.097Z,101889.38
2023-01-30T03:21:20.922Z,101886.81
2023-01-30T03:23:49.274Z,101886.81
2023-01-30T03:26:21.561Z,101877.34
2023-01-30T03:28:52.797Z,101872.16
2023-01-30T03:31:22.022Z,101881.66
2023-01-30T03:33:51.709Z,101886.81
2023-01-30T03:36:20.095Z,101880.78
2023-01-30T03:38:48.548Z,101878.22
2023-01-30T03:41:17.693Z,101876.50
2023-01-30T03:43:45.899Z,101882.53
2023-01-30T03:46:14.213Z,101884.22
2023-01-30T03:48:42.899Z,101875.63
2023-01-30T03:51:15.184Z,101873.88
2023-01-30T03:53:43.609Z,101880.78
2023-01-30T03:56:13.588Z,101876.47
2023-01-30T03:58:41.909Z,101871.31
2023-01-30T04:01:19.098Z,101867.88
2023-01-30T04:03:48.041Z,101869.59
2023-01-30T04:06:18.669Z,101879.03
2023-01-30T04:08:46.999Z,101872.16
2023-01-30T04:11:27.696Z,101873.88
2023-01-30T04:13:56.087Z,101883.34
2023-01-30T04:16:27.633Z,101877.31
2023-01-30T04:19:14.271Z,101876.47
2023-01-30T04:21:44.487Z,101878.16
2023-01-30T04:24:13.564Z,101877.31
2023-01-30T04:26:42.046Z,101877.31
2023-01-30T04:29:11.529Z,101878.19
2023-01-30T04:31:41.364Z,101878.16
2023-01-30T04:34:19.856Z,101887.66
2023-01-30T04:36:49.829Z,101887.66
2023-01-30T04:39:20.492Z,101891.06
2023-01-30T04:41:49.490Z,101888.50
2023-01-30T04:44:17.903Z,101885.91
2023-01-30T04:47:07.421Z,101887.63
2023-01-30T04:49:36.019Z,101887.63
2023-01-30T04:52:06.664Z,101884.19
2023-01-30T04:54:35.078Z,101889.34
2023-01-30T04:57:03.389Z,101887.59
2023-01-30T04:59:31.813Z,101887.59
2023-01-30T05:02:04.601Z,101894.50
2023-01-30T05:04:32.942Z,101896.22
2023-01-30T05:07:01.181Z,101887.59
2023-01-30T05:09:30.888Z,101897.91
2023-01-30T05:11:59.526Z,101892.75
2023-01-30T05:14:27.811Z,101893.56
2023-01-30T05:16:56.165Z,101889.25
2023-01-30T05:19:24.601Z,101895.28
2023-01-30T05:21:53.187Z,101893.56
2023-01-30T05:24:21.706Z,101888.41
2023-01-30T05:26:51.703Z,101886.66
2023-01-30T05:29:20.016Z,101888.41
2023-01-30T05:31:48.386Z,101894.41
2023-01-30T05:34:16.913Z,101886.66
2023-01-30T05:36:45.505Z,101889.25
2023-01-30T05:39:14.384Z,101891.84
2023-01-30T05:41:42.932Z,101891.81
2023-01-30T05:44:12.753Z,101897.00
2023-01-30T05:46:41.241Z,101897.00
2023-01-30T05:49:09.540Z,101889.25
2023-01-30T05:51:38.767Z,101885.81
2023-01-30T05:54:07.249Z,101898.72
2023-01-30T05:56:35.737Z,101898.72
2023-01-30T05:59:04.224Z,101903.03
2023-01-30T06:01:34.032Z,101903.88
2023-01-30T06:04:03.143Z,101901.31
2023-01-30T06:06:31.450Z,101894.41
2023-01-30T06:08:59.741Z,101888.41
2023-01-30T06:11:28.147Z,101890.09
2023-01-30T06:13:56.559Z,101880.63
2023-01-30T06:16:25.003Z,101883.22
2023-01-30T06:18:54.731Z,101874.59
2023-01-30T06:21:23.161Z,101878.91
2023-01-30T06:23:51.432Z,101875.47
2023-01-30T06:26:19.723Z,101876.31
2023-01-30T06:28:48.491Z,101876.31
2023-01-30T06:31:18.567Z,101873.72
2023-01-30T06:33:47.125Z,101882.34
2023-01-30T06:36:16.998Z,101881.44
2023-01-30T06:38:45.191Z,101884.88
2023-01-30T06:41:13.407Z,101891.78
2023-01-30T06:43:43.151Z,101884.00
2023-01-30T06:46:11.481Z,101891.75
2023-01-30T06:48:39.718Z,101894.34
2023-01-30T06:51:07.985Z,101900.34
2023-01-30T06:53:37.657Z,101899.50
2023-01-30T06:56:06.330Z,101901.19
2023-01-30T06:58:34.559Z,101907.22
2023-01-30T07:01:03.282Z,101905.47
2023-01-30T07:03:31.679Z,101912.38
2023-01-30T07:05:59.986Z,101918.34
2023-01-30T07:08:28.303Z,101912.34
2023-01-30T07:10:57.976Z,101914.88
2023-01-30T07:13:26.336Z,101916.59
2023-01-30T07:15:54.549Z,101911.44
2023-01-30T07:18:22.773Z,101920.00
2023-01-30T07:20:51.589Z,101920.88
2023-01-30T07:23:19.937Z,101917.41
2023-01-30T07:25:48.262Z,101916.50
2023-01-30T07:28:17.839Z,101924.25
2023-01-30T07:30:46.111Z,101922.50
2023-01-30T07:33:14.637Z,101921.66
2023-01-30T07:35:42.858Z,101924.19
2023-01-30T07:38:11.114Z,101929.34
2023-01-30T07:40:39.401Z,101932.81
2023-01-30T07:43:09.400Z,101932.78
2023-01-30T07:45:41.979Z,101936.19
2023-01-30T07:48:11.042Z,101946.59
2023-01-30T07:50:39.465Z,101955.19
2023-01-30T07:53:10.256Z,101949.09
2023-01-30T07:55:38.898Z,101955.97
2023-01-30T07:58:07.210Z,101968.91
2023-01-30T08:00:35.541Z,101967.19
2023-01-30T08:03:05.265Z,101960.28
2023-01-30T08:05:33.772Z,101966.31
2023-01-30T08:08:02.022Z,101971.47
2023-01-30T08:10:30.230Z,101971.47
2023-01-30T08:12:58.454Z,101968.88
2023-01-30T08:15:26.733Z,101976.66
2023-01-30T08:17:56.738Z,101978.34
2023-01-30T08:20:28.143Z,101986.09
2023-01-30T08:22:56.538Z,101988.69
2023-01-30T08:25:24.886Z,101987.81
2023-01-30T08:27:53.576Z,101983.47
2023-01-30T08:30:22.573Z,101988.63
2023-01-30T08:32:51.095Z,101994.63
2023-01-30T08:35:19.629Z,101990.28
2023-01-30T08:37:49.485Z,101998.03
2023-01-30T08:40:18.349Z,101991.13
2023-01-30T08:42:47.378Z,101996.25
2023-01-30T08:45:15.803Z,102000.56
2023-01-30T08:47:44.176Z,102003.09
2023-01-30T08:50:12.945Z,102003.06
2023-01-30T08:52:41.174Z,101995.28
2023-01-30T08:55:11.915Z,102005.56
2023-01-30T08:57:40.247Z,102004.69
2023-01-30T09:00:10.220Z,102009.84
2023-01-30T09:02:38.893Z,102017.59
2023-01-30T09:05:08.905Z,102017.56
2023-01-30T09:07:37.229Z,102015.78
2023-01-30T09:10:06.233Z,102016.63
2023-01-30T09:12:36.257Z,102014.81
2023-01-30T09:15:04.942Z,102021.63
2023-01-30T09:17:33.203Z,102022.50
2023-01-30T09:20:02.024Z,102024.19
2023-01-30T09:22:30.317Z,102032.00
2023-01-30T09:24:59.183Z,102025.94
2023-01-30T09:27:27.559Z,102033.69
2023-01-30T09:29:57.350Z,102029.31
2023-01-30T09:32:25.683Z,102032.69
2023-01-30T09:34:53.976Z,102034.34
2023-01-30T09:37:22.316Z,102032.56
2023-01-30T09:39:50.531Z,102025.59
2023-01-30T09:42:51.962Z,102025.53
2023-01-30T09:45:44.756Z,102029.72
2023-01-30T09:48:18.632Z,102032.38
2023-01-30T09:51:15.660Z,102028.81
2023-01-30T09:54:02.405Z,102029.53
2023-01-30T09:56:31.048Z,102024.25
2023-01-30T09:59:01.229Z,102035.53
2023-01-30T10:01:38.315Z,102034.75
2023-01-30T10:04:15.788Z,102041.72
2023-01-30T10:06:53.405Z,102040.91
2023-01-30T10:09:34.674Z,102033.19
2023-01-30T10:12:16.446Z,102038.38
2023-01-30T10:14:59.278Z,102044.47
2023-01-30T10:17:41.703Z,102035.75
2023-01-30T10:20:40.139Z,102039.13
2023-01-30T10:23:31.090Z,102043.41
2023-01-30T10:26:06.214Z,102042.53
2023-01-30T10:28:39.409Z,102038.22
2023-01-30T10:31:14.626Z,102035.63
2023-01-30T10:33:50.845Z,102039.09
2023-01-30T10:36:26.525Z,102040.84
2023-01-30T10:39:00.458Z,102047.63
2023-01-30T10:41:34.135Z,102038.75
2023-01-30T10:44:07.038Z,102039.44
2023-01-30T10:46:56.956Z,102047.16
2023-01-30T10:49:37.670Z,102047.22
2023-01-30T10:52:21.194Z,102056.00
2023-01-30T10:55:01.302Z,102055.19
2023-01-30T10:57:43.813Z,102056.00
2023-01-30T11:00:23.881Z,102066.13
2023-01-30T11:03:07.228Z,102057.94
2023-01-30T11:05:43.406Z,102057.63
2023-01-30T11:08:21.396Z,102060.94
2023-01-30T11:10:49.843Z,102054.88
2023-01-30T11:13:20.309Z,102059.31
2023-01-30T11:15:52.266Z,102062.94
2023-01-30T11:19:14.107Z,102060.50
2023-01-30T11:21:24.987Z,102059.81
2023-01-30T11:23:56.006Z,102057.38
2023-01-30T11:26:32.041Z,102057.50
2023-01-30T11:29:25.300Z,102059.28
2023-01-30T11:31:54.714Z,102055.81
2023-01-30T11:34:24.874Z,102054.88
2023-01-30T11:36:54.671Z,102048.66
2023-01-30T11:39:29.617Z,102047.66
2023-01-30T11:42:01.849Z,102048.41
2023-01-30T11:44:33.257Z,102039.66
2023-01-30T11:47:03.763Z,102043.97
2023-01-30T11:49:46.975Z,102039.56
2023-01-30T11:52:32.859Z,102044.69
2023-01-30T11:55:05.592Z,102034.19
2023-01-30T11:57:42.670Z,102035.69
2023-01-30T12:00:20.814Z,102036.41
2023-01-30T12:02:50.631Z,102032.91
2023-01-30T12:05:25.278Z,102031.19
2023-01-30T12:07:54.953Z,102030.31
2023-01-30T12:10:32.662Z,102024.16
2023-01-30T12:13:04.868Z,102021.34
2023-01-30T12:15:35.132Z,102011.53
2023-01-30T12:18:11.865Z,102016.75
2023-01-30T12:20:50.810Z,102010.72
2023-01-30T12:23:26.882Z,102014.69
2023-01-30T12:26:03.726Z,102019.28
2023-01-30T12:28:38.203Z,102018.13
2023-01-30T12:31:12.144Z,102010.00
2023-01-30T12:33:40.617Z,102013.88
2023-01-30T12:36:17.402Z,102012.31
2023-01-30T12:39:13.254Z,102004.66
2023-01-30T12:41:58.059Z,102004.63
2023-01-30T12:44:44.786Z,102005.53
2023-01-30T12:47:28.188Z,101998.66
2023-01-30T12:50:21.205Z,101996.16
2023-01-30T12:53:03.885Z,102005.81
2023-01-30T12:55:37.819Z,101997.47
2023-01-30T12:58:15.784Z,101999.28
2023-01-30T13:01:00.078Z,101991.50
2023-01-30T13:03:37.684Z,101992.44
2023-01-30T13:06:22.891Z,102002.03
2023-01-30T13:09:04.836Z,101995.97
2023-01-30T13:11:49.740Z,101993.28
2023-01-30T13:14:26.929Z,101986.22
2023-01-30T13:17:21.572Z,101986.91
2023-01-30T13:20:00.690Z,101984.19
2023-01-30T13:22:36.489Z,101979.75
2023-01-30T13:25:17.082Z,101982.34
2023-01-30T13:27:54.523Z,101976.38
2023-01-30T13:30:25.688Z,101974.81
2023-01-30T13:32:58.468Z,101989.59
2023-01-30T13:35:31.123Z,101984.47
2023-01-30T13:38:00.423Z,101981.81
2023-01-30T13:40:33.115Z,101971.44
2023-01-30T13:43:10.179Z,101971.44
2023-01-30T13:45:43.542Z,101977.44
2023-01-30T13:48:23.519Z,101975.72
2023-01-30T13:51:13.855Z,101970.53
2023-01-30T13:53:49.928Z,101968.84
2023-01-30T13:56:40.668Z,101970.66
2023-01-30T13:59:23.852Z,101964.41
2023-01-30T14:02:18.327Z,101963.34
2023-01-30T14:04:49.231Z,101961.38
2023-01-30T14:07:24.200Z,101962.19
2023-01-30T14:10:04.178Z,101973.66
2023-01-30T14:12:36.553Z,101962.53
2023-01-30T14:15:21.188Z,101958.41
2023-01-30T14:18:07.603Z,101957.44
2023-01-30T14:20:37.692Z,101961.59
2023-01-30T14:23:07.997Z,101962.34
2023-01-30T14:25:48.200Z,101964.94
2023-01-30T14:28:52.340Z,101965.91
2023-01-30T14:31:55.393Z,101965.03
2023-01-30T14:34:47.570Z,101972.03
2023-01-30T14:37:46.642Z,101976.19
2023-01-30T14:40:51.525Z,101973.69
2023-01-30T14:43:53.247Z,101983.31
2023-01-30T14:46:58.588Z,101980.00
2023-01-30T14:49:33.375Z,101989.59
2023-01-30T14:52:03.983Z,101990.44
2023-01-30T14:54:49.588Z,101987.88
2023-01-30T14:57:23.075Z,101993.03
2023-01-30T15:00:14.377Z,101986.97
2023-01-30T15:02:52.526Z,101990.38
2023-01-30T15:05:27.734Z,101992.84
2023-01-30T15:08:03.772Z,101990.19
2023-01-30T15:10:50.697Z,101991.06
2023-01-30T15:13:34.936Z,101991.00
2023-01-30T15:16:16.033Z,101981.38
2023-01-30T15:19:04.837Z,101977.78
2023-01-30T15:21:56.179Z,101991.47
2023-01-30T15:24:54.594Z,101983.78
2023-01-30T15:27:31.326Z,101998.59
2023-01-30T15:30:18.099Z,101990.94
2023-01-30T15:32:46.953Z,102002.22
2023-01-30T15:35:29.709Z,101996.25
2023-01-30T15:37:59.098Z,101999.81
2023-01-30T15:40:29.930Z,102007.63
2023-01-30T15:43:20.586Z,102006.03
2023-01-30T15:46:04.726Z,102013.91
2023-01-30T15:48:46.171Z,102015.78
2023-01-30T15:51:30.286Z,102030.53
2023-01-30T15:54:10.135Z,102031.47
2023-01-30T15:56:41.740Z,102022.00
2023-01-30T15:59:27.639Z,102035.03
2023-01-30T16:02:05.283Z,102038.53
2023-01-30T16:04:33.801Z,102047.22
2023-01-30T16:07:15.683Z,102050.78
2023-01-30T16:09:52.182Z,102052.56
2023-01-30T16:12:28.148Z,102054.41
2023-01-30T16:15:05.693Z,102057.06
2023-01-30T16:17:41.228Z,102053.72
2023-01-30T16:20:15.601Z,102064.13
2023-01-30T16:22:48.216Z,102065.09
2023-01-30T16:25:21.550Z,102069.41
2023-01-30T16:27:52.030Z,102066.84
2023-01-30T16:30:27.269Z,102062.56
2023-01-30T16:32:57.262Z,102078.19
2023-01-30T16:35:34.364Z,102072.19
2023-01-30T16:38:06.853Z,102080.88
2023-01-30T16:40:44.710Z,102081.78
2023-01-30T16:43:21.788Z,102086.13
2023-01-30T16:46:44.308Z,102093.03
2023-01-30T16:49:19.403Z,102090.47
2023-01-30T16:51:48.845Z,102088.75
2023-01-30T16:54:26.893Z,102091.31
2023-01-30T16:56:58.915Z,102090.47
2023-01-30T16:59:31.855Z,102094.78
2023-01-30T17:02:01.390Z,102099.94
2023-01-30T17:04:32.609Z,102102.53
2023-01-30T17:07:04.223Z,102109.44
2023-01-30T17:09:46.056Z,102095.63
2023-01-30T17:12:39.157Z,102093.06
2023-01-30T17:15:33.564Z,102101.66
2023-01-30T17:18:02.313Z,102105.16
2023-01-30T17:20:39.310Z,102109.47
2023-01-30T17:23:11.091Z,102114.63
2023-01-30T17:25:44.485Z,102118.09
2023-01-30T17:28:21.324Z,102115.50
2023-01-30T17:30:50.472Z,102118.94
2023-01-30T17:33:18.863Z,102122.41
2023-01-30T17:35:47.741Z,102120.69
2023-01-30T17:38:16.421Z,102127.59
2023-01-30T17:40:46.430Z,102130.16
2023-01-30T17:43:17.016Z,102124.97
2023-01-30T17:45:45.508Z,102130.19
2023-01-30T17:48:17.509Z,102132.78
2023-01-30T17:50:46.000Z,102130.19
2023-01-30T17:53:14.375Z,102137.09
2023-01-30T17:55:42.858Z,102134.50
2023-01-30T17:58:20.961Z,102139.69
2023-01-30T18:00:49.263Z,102144.00
2023-01-30T18:03:17.588Z,102143.13
2023-01-30T18:05:46.335Z,102147.44
2023-01-30T18:08:15.131Z,102138.84
2023-01-30T18:10:43.398Z,102144.84
2023-01-30T18:13:13.110Z,102149.16
2023-01-30T18:15:41.512Z,102148.34
2023-01-30T18:18:13.115Z,102154.38
2023-01-30T18:20:41.416Z,102155.25
2023-01-30T18:23:09.743Z,102163.00
2023-01-30T18:25:38.016Z,102159.53
2023-01-30T18:28:08.618Z,102163.00
2023-01-30T18:30:38.481Z,102163.88
2023-01-30T18:33:07.074Z,102168.19
2023-01-30T18:35:35.289Z,102163.88
2023-01-30T18:38:03.569Z,102167.31
2023-01-30T18:40:31.848Z,102171.63
2023-01-30T18:43:00.124Z,102167.34
2023-01-30T18:45:28.351Z,102165.59
2023-01-30T18:47:58.050Z,102163.03
2023-01-30T18:50:26.327Z,102170.78
2023-01-30T18:52:54.516Z,102170.78
2023-01-30T18:55:25.635Z,102174.22
2023-01-30T18:57:54.031Z,102169.06
2023-01-30T19:00:23.328Z,102169.94
2023-01-30T19:02:53.002Z,102176.81
2023-01-30T19:05:22.712Z,102181.13
2023-01-30T19:07:50.960Z,102185.44
2023-01-30T19:10:20.543Z,102184.59
2023-01-30T19:13:20.909Z,102188.06
2023-01-30T19:15:49.221Z,102180.28
2023-01-30T19:18:17.715Z,102192.38
2023-01-30T19:20:47.506Z,102186.31
2023-01-30T19:23:15.840Z,102189.75
2023-01-30T19:25:44.165Z,102189.78
2023-01-30T19:28:12.540Z,102195.84
2023-01-30T19:30:40.781Z,102198.41
2023-01-30T19:33:09.155Z,102196.69
2023-01-30T19:35:37.503Z,102203.59
2023-01-30T19:38:14.444Z,102203.59
2023-01-30T19:40:43.488Z,102198.41
2023-01-30T19:43:12.315Z,102194.97
2023-01-30T19:45:42.128Z,102206.16
2023-01-30T19:48:12.077Z,102204.44
2023-01-30T19:50:40.343Z,102207.03
2023-01-30T19:53:10.066Z,102207.00
2023-01-30T19:55:38.666Z,102200.13
2023-01-30T19:58:07.009Z,102204.44
2023-01-30T20:00:35.451Z,102207.03
2023-01-30T20:03:03.758Z,102207.91
2023-01-30T20:05:32.114Z,102204.44
2023-01-30T20:08:00.421Z,102210.50
2023-01-30T20:10:30.129Z,102203.59
2023-01-30T20:12:58.427Z,102211.34
2023-01-30T20:15:26.955Z,102207.03
2023-01-30T20:17:55.374Z,102211.34
2023-01-30T20:20:23.640Z,102199.31
2023-01-30T20:22:51.937Z,102205.31
2023-01-30T20:25:20.230Z,102214.81
2023-01-30T20:27:49.852Z,102221.72
2023-01-30T20:30:19.872Z,102219.09
2023-01-30T20:32:48.307Z,102217.41
2023-01-30T20:35:17.816Z,102218.25
2023-01-30T20:37:46.116Z,102217.38
2023-01-30T20:40:14.962Z,102213.06
2023-01-30T20:42:43.169Z,102219.97
2023-01-30T20:45:13.246Z,102214.81
2023-01-30T20:47:42.181Z,102217.38
2023-01-30T20:50:13.817Z,102213.94
2023-01-30T20:52:43.660Z,102216.53
2023-01-30T20:55:12.044Z,102232.03
2023-01-30T20:57:43.569Z,102231.19
2023-01-30T21:00:14.684Z,102237.22
2023-01-30T21:02:45.720Z,102235.47
2023-01-30T21:05:13.971Z,102232.03
2023-01-30T21:07:42.228Z,102230.31
2023-01-30T21:10:11.832Z,102241.53
2023-01-30T21:12:40.097Z,102233.78
2023-01-30T21:15:09.599Z,102234.63
2023-01-30T21:17:39.431Z,102227.72
2023-01-30T21:20:08.263Z,102226.88
2023-01-30T21:22:36.951Z,102231.19
2023-01-30T21:25:05.600Z,102231.19
2023-01-30T21:27:33.860Z,102230.31
2023-01-30T21:30:02.064Z,102227.72
2023-01-30T21:32:30.396Z,102229.47
2023-01-30T21:35:00.025Z,102232.03
2023-01-30T21:37:47.666Z,102233.75
2023-01-30T21:40:33.917Z,102235.50
2023-01-30T21:43:17.389Z,102239.81
2023-01-30T21:45:45.757Z,102231.19
2023-01-30T21:48:14.401Z,102228.59
2023-01-30T21:50:44.805Z,102224.25
2023-01-30T21:53:13.041Z,102227.72
2023-01-30T21:55:41.354Z,102223.41
2023-01-30T21:58:09.654Z,102219.97
2023-01-30T22:00:37.873Z,102224.28
2023-01-30T22:03:06.250Z,102228.59
2023-01-30T22:05:36.761Z,102221.69
2023-01-30T22:08:06.972Z,102225.13
2023-01-30T22:10:35.206Z,102226.84
2023-01-30T22:13:03.543Z,102227.72
2023-01-30T22:15:33.905Z,102222.53
2023-01-30T22:18:03.628Z,102215.66
2023-01-30T22:20:31.872Z,102223.44
2023-01-30T22:23:00.164Z,102230.31
2023-01-30T22:25:29.800Z,102219.97
2023-01-30T22:27:58.056Z,102219.09
2023-01-30T22:30:26.294Z,102218.25
2023-01-30T22:32:55.679Z,102224.28
2023-01-30T22:35:23.936Z,102223.41
2023-01-30T22:37:52.225Z,102226.88
2023-01-30T22:40:20.650Z,102224.28
2023-01-30T22:42:50.341Z,102215.66
2023-01-30T22:45:18.867Z,102218.25
2023-01-30T22:47:47.319Z,102214.81
2023-01-30T22:50:15.677Z,102214.78
2023-01-30T22:52:43.977Z,102214.81
2023-01-30T22:55:12.232Z,102204.44
2023-01-30T22:57:40.568Z,102211.34
2023-01-30T23:00:11.949Z,102213.94
2023-01-30T23:02:40.492Z,102216.53
2023-01-30T23:05:09.471Z,102210.50
2023-01-30T23:07:38.120Z,102219.94
2023-01-30T23:10:07.040Z,102212.22
2023-01-30T23:12:52.383Z,102206.16
2023-01-30T23:15:22.122Z,102210.50
2023-01-30T23:18:08.140Z,102210.50
2023-01-30T23:20:36.759Z,102208.72
2023-01-30T23:23:07.096Z,102213.91
2023-01-30T23:25:35.497Z,102223.41
2023-01-30T23:28:03.724Z,102213.06
2023-01-30T23:30:33.455Z,102210.47
2023-01-30T23:33:01.825Z,102216.50
2023-01-30T23:35:30.048Z,102213.06
2023-01-30T23:38:15.591Z,102218.25
2023-01-30T23:40:44.402Z,102218.25
2023-01-30T23:43:12.806Z,102213.06
2023-01-30T23:45:43.221Z,102219.09
2023-01-30T23:48:11.712Z,102215.63
2023-01-30T23:50:42.268Z,102220.81
2023-01-30T23:53:10.697Z,102219.09
2023-01-30T23:55:38.902Z,102214.78
2023-01-30T23:58:07.216Z,102218.25
